sensor_id;sensor_type;location;lat;lon;timestamp;pressure;altitude;pressure_sealevel;temperature;humidity
54882;BME280;40775;51.448;4.742;2023-06-26T00:00:04;101170.03;;;25.20;100.00
54882;BME280;40775;51.448;4.742;2023-06-26T00:02:32;101169.44;;;25.12;100.00
54882;BME280;40775;51.448;4.742;2023-06-26T00:05:00;101166.78;;;25.10;100.00
54882;BME280;40775;51.448;4.742;2023-06-26T00:07:30;101166.75;;;25.12;100.00
54882;BME280;40775;51.448;4.742;2023-06-26T00:09:57;101162.19;;;25.14;100.00
54882;BME280;40775;51.448;4.742;2023-06-26T00:12:26;101167.88;;;25.05;100.00
54882;BME280;40775;51.448;4.742;2023-06-26T00:14:53;101170.88;;;24.95;100.00
54882;BME280;40775;51.448;4.742;2023-06-26T00:17:21;101176.94;;;25.02;100.00
54882;BME280;40775;51.448;4.742;2023-06-26T00:19:49;101173.78;;;24.88;100.00
54882;BME280;40775;51.448;4.742;2023-06-26T00:22:16;101174.38;;;24.98;100.00
54882;BME280;40775;51.448;4.742;2023-06-26T00:24:43;101179.09;;;24.89;100.00
54882;BME280;40775;51.448;4.742;2023-06-26T00:27:11;101170.53;;;24.78;100.00
54882;BME280;40775;51.448;4.742;2023-06-26T00:29:38;101178.59;;;24.78;100.00
54882;BME280;40775;51.448;4.742;2023-06-26T00:32:06;101175.47;;;24.65;100.00
54882;BME280;40775;51.448;4.742;2023-06-26T00:34:33;101181.09;;;24.56;100.00
54882;BME280;40775;51.448;4.742;2023-06-26T00:37:00;101180.44;;;24.50;100.00
54882;BME280;40775;51.448;4.742;2023-06-26T00:39:27;101185.78;;;24.50;100.00
54882;BME280;40775;51.448;4.742;2023-06-26T00:41:54;101189.41;;;24.49;100.00
54882;BME280;40775;51.448;4.742;2023-06-26T00:44:22;101184.91;;;24.49;100.00
54882;BME280;40775;51.448;4.742;2023-06-26T00:46:49;101185.28;;;24.37;100.00
54882;BME280;40775;51.448;4.742;2023-06-26T00:49:16;101184.41;;;24.37;100.00
54882;BME280;40775;51.448;4.742;2023-06-26T00:51:43;101177.47;;;24.29;100.00
54882;BME280;40775;51.448;4.742;2023-06-26T00:54:11;101182.91;;;24.28;100.00
54882;BME280;40775;51.448;4.742;2023-06-26T00:56:38;101201.69;;;24.26;100.00
54882;BME280;40775;51.448;4.742;2023-06-26T00:59:05;101199.31;;;24.17;100.00
54882;BME280;40775;51.448;4.742;2023-06-26T01:01:32;101209.31;;;24.12;100.00
54882;BME280;40775;51.448;4.742;2023-06-26T01:03:59;101210.28;;;24.08;100.00
54882;BME280;40775;51.448;4.742;2023-06-26T01:06:28;101210.56;;;24.30;100.00
54882;BME280;40775;51.448;4.742;2023-06-26T01:09:03;101204.47;;;24.23;100.00
54882;BME280;40775;51.448;4.742;2023-06-26T01:11:29;101207.44;;;24.14;100.00
54882;BME280;40775;51.448;4.742;2023-06-26T01:14:00;101214.56;;;24.15;100.00
54882;BME280;40775;51.448;4.742;2023-06-26T01:16:28;101204.38;;;23.97;100.00
54882;BME280;40775;51.448;4.742;2023-06-26T01:18:56;101212.44;;;23.97;100.00
54882;BME280;40775;51.448;4.742;2023-06-26T01:21:23;101218.03;;;23.89;100.00
54882;BME280;40775;51.448;4.742;2023-06-26T01:24:16;101209.75;;;23.97;100.00
54882;BME280;40775;51.448;4.742;2023-06-26T01:26:54;101211.69;;;23.92;100.00
54882;BME280;40775;51.448;4.742;2023-06-26T01:29:22;101221.03;;;23.77;100.00
54882;BME280;40775;51.448;4.742;2023-06-26T01:31:50;101223.84;;;23.72;100.00
54882;BME280;40775;51.448;4.742;2023-06-26T01:34:18;101233.72;;;23.70;100.00
54882;BME280;40775;51.448;4.742;2023-06-26T01:36:45;101234.94;;;23.60;100.00
54882;BME280;40775;51.448;4.742;2023-06-26T01:39:17;101217.91;;;23.61;100.00
54882;BME280;40775;51.448;4.742;2023-06-26T01:41:44;101221.81;;;23.48;100.00
54882;BME280;40775;51.448;4.742;2023-06-26T01:44:28;101229.00;;;23.46;100.00
54882;BME280;40775;51.448;4.742;2023-06-26T01:47:05;101230.81;;;23.46;100.00
54882;BME280;40775;51.448;4.742;2023-06-26T01:50:00;101231.06;;;23.36;100.00
54882;BME280;40775;51.448;4.742;2023-06-26T01:53:01;101226.78;;;23.29;100.00
54882;BME280;40775;51.448;4.742;2023-06-26T01:55:40;101230.09;;;23.39;100.00
54882;BME280;40775;51.448;4.742;2023-06-26T01:58:10;101239.94;;;23.38;100.00
54882;BME280;40775;51.448;4.742;2023-06-26T02:00:37;101230.34;;;23.30;100.00
54882;BME280;40775;51.448;4.742;2023-06-26T02:03:05;101216.88;;;23.33;100.00
54882;BME280;40775;51.448;4.742;2023-06-26T02:05:33;101221.56;;;23.23;100.00
54882;BME280;40775;51.448;4.742;2023-06-26T02:08:00;101229.59;;;23.23;100.00
54882;BME280;40775;51.448;4.742;2023-06-26T02:10:31;101232.13;;;23.31;100.00
54882;BME280;40775;51.448;4.742;2023-06-26T02:12:58;101230.56;;;23.21;100.00
54882;BME280;40775;51.448;4.742;2023-06-26T02:15:25;101227.06;;;23.19;100.00
54882;BME280;40775;51.448;4.742;2023-06-26T02:17:51;101239.66;;;23.15;100.00
54882;BME280;40775;51.448;4.742;2023-06-26T02:20:18;101237.22;;;23.06;100.00
54882;BME280;40775;51.448;4.742;2023-06-26T02:22:45;101256.00;;;23.04;100.00
54882;BME280;40775;51.448;4.742;2023-06-26T02:25:13;101251.66;;;22.99;100.00
54882;BME280;40775;51.448;4.742;2023-06-26T02:27:40;101255.06;;;23.05;100.00
54882;BME280;40775;51.448;4.742;2023-06-26T02:30:09;101249.09;;;22.94;100.00
54882;BME280;40775;51.448;4.742;2023-06-26T02:32:36;101260.69;;;22.95;100.00
54882;BME280;40775;51.448;4.742;2023-06-26T02:35:04;101263.28;;;22.98;100.00
54882;BME280;40775;51.448;4.742;2023-06-26T02:37:31;101267.81;;;22.94;100.00
54882;BME280;40775;51.448;4.742;2023-06-26T02:39:58;101275.97;;;22.90;100.00
54882;BME280;40775;51.448;4.742;2023-06-26T02:42:25;101273.22;;;22.93;100.00
54882;BME280;40775;51.448;4.742;2023-06-26T02:44:52;101268.06;;;22.85;100.00
54882;BME280;40775;51.448;4.742;2023-06-26T02:47:19;101280.44;;;22.89;100.00
54882;BME280;40775;51.448;4.742;2023-06-26T02:49:46;101283.31;;;22.80;100.00
54882;BME280;40775;51.448;4.742;2023-06-26T02:52:13;101282.50;;;22.76;100.00
54882;BME280;40775;51.448;4.742;2023-06-26T02:54:40;101290.59;;;22.75;100.00
54882;BME280;40775;51.448;4.742;2023-06-26T02:57:07;101283.41;;;22.77;100.00
54882;BME280;40775;51.448;4.742;2023-06-26T02:59:34;101286.16;;;22.74;100.00
54882;BME280;40775;51.448;4.742;2023-06-26T03:02:01;101287.97;;;22.70;100.00
54882;BME280;40775;51.448;4.742;2023-06-26T03:04:28;101290.66;;;22.70;100.00
54882;BME280;40775;51.448;4.742;2023-06-26T03:06:55;101282.56;;;22.75;100.00
54882;BME280;40775;51.448;4.742;2023-06-26T03:09:22;101291.69;;;22.65;100.00
54882;BME280;40775;51.448;4.742;2023-06-26T03:11:49;101279.19;;;22.65;100.00
54882;BME280;40775;51.448;4.742;2023-06-26T03:14:16;101284.66;;;22.61;100.00
54882;BME280;40775;51.448;4.742;2023-06-26T03:16:43;101286.38;;;22.63;100.00
54882;BME280;40775;51.448;4.742;2023-06-26T03:19:10;101290.06;;;22.58;100.00
54882;BME280;40775;51.448;4.742;2023-06-26T03:21:37;101293.31;;;22.72;100.00
54882;BME280;40775;51.448;4.742;2023-06-26T03:24:05;101300.91;;;22.51;100.00
54882;BME280;40775;51.448;4.742;2023-06-26T03:26:32;101306.31;;;22.50;100.00
54882;BME280;40775;51.448;4.742;2023-06-26T03:28:59;101313.47;;;22.48;100.00
54882;BME280;40775;51.448;4.742;2023-06-26T03:31:26;101318.53;;;22.20;100.00
54882;BME280;40775;51.448;4.742;2023-06-26T03:33:53;101320.03;;;22.33;100.00
54882;BME280;40775;51.448;4.742;2023-06-26T03:36:20;101319.88;;;22.39;100.00
54882;BME280;40775;51.448;4.742;2023-06-26T03:38:47;101333.44;;;22.32;100.00
54882;BME280;40775;51.448;4.742;2023-06-26T03:41:14;101329.03;;;22.29;100.00
54882;BME280;40775;51.448;4.742;2023-06-26T03:43:41;101327.31;;;22.25;100.00
54882;BME280;40775;51.448;4.742;2023-06-26T03:46:08;101330.97;;;22.21;100.00
54882;BME280;40775;51.448;4.742;2023-06-26T03:48:35;101335.34;;;22.25;100.00
54882;BME280;40775;51.448;4.742;2023-06-26T03:51:02;101341.72;;;22.19;100.00
54882;BME280;40775;51.448;4.742;2023-06-26T03:53:29;101350.72;;;22.14;100.00
54882;BME280;40775;51.448;4.742;2023-06-26T03:55:56;101353.47;;;22.09;100.00
54882;BME280;40775;51.448;4.742;2023-06-26T03:58:23;101361.50;;;22.09;100.00
54882;BME280;40775;51.448;4.742;2023-06-26T04:00:51;101353.81;;;21.89;100.00
54882;BME280;40775;51.448;4.742;2023-06-26T04:03:18;101343.00;;;21.97;100.00
54882;BME280;40775;51.448;4.742;2023-06-26T04:05:46;101346.75;;;21.85;100.00
54882;BME280;40775;51.448;4.742;2023-06-26T04:08:13;101345.75;;;21.93;100.00
54882;BME280;40775;51.448;4.742;2023-06-26T04:10:40;101342.50;;;21.75;100.00
54882;BME280;40775;51.448;4.742;2023-06-26T04:13:07;101350.50;;;21.77;100.00
54882;BME280;40775;51.448;4.742;2023-06-26T04:15:34;101357.63;;;21.76;100.00
54882;BME280;40775;51.448;4.742;2023-06-26T04:18:01;101350.34;;;21.84;100.00
54882;BME280;40775;51.448;4.742;2023-06-26T04:20:29;101350.56;;;21.72;100.00
54882;BME280;40775;51.448;4.742;2023-06-26T04:22:57;101353.06;;;21.81;100.00
54882;BME280;40775;51.448;4.742;2023-06-26T04:25:24;101368.34;;;21.75;100.00
54882;BME280;40775;51.448;4.742;2023-06-26T04:27:51;101367.59;;;21.67;100.00
54882;BME280;40775;51.448;4.742;2023-06-26T04:30:18;101372.09;;;21.65;100.00
54882;BME280;40775;51.448;4.742;2023-06-26T04:32:45;101372.94;;;21.68;100.00
54882;BME280;40775;51.448;4.742;2023-06-26T04:35:13;101386.28;;;21.68;100.00
54882;BME280;40775;51.448;4.742;2023-06-26T04:37:40;101392.50;;;21.69;100.00
54882;BME280;40775;51.448;4.742;2023-06-26T04:40:08;101393.41;;;21.68;100.00
54882;BME280;40775;51.448;4.742;2023-06-26T04:42:36;101383.44;;;21.77;100.00
54882;BME280;40775;51.448;4.742;2023-06-26T04:45:04;101398.66;;;21.74;100.00
54882;BME280;40775;51.448;4.742;2023-06-26T04:47:31;101398.72;;;21.71;100.00
54882;BME280;40775;51.448;4.742;2023-06-26T04:49:58;101401.41;;;21.69;100.00
54882;BME280;40775;51.448;4.742;2023-06-26T04:52:25;101399.59;;;21.71;100.00
54882;BME280;40775;51.448;4.742;2023-06-26T04:54:52;101398.50;;;21.83;100.00
54882;BME280;40775;51.448;4.742;2023-06-26T04:57:19;101402.94;;;21.82;100.00
54882;BME280;40775;51.448;4.742;2023-06-26T04:59:46;101399.25;;;21.89;100.00
54882;BME280;40775;51.448;4.742;2023-06-26T05:02:13;101403.78;;;21.86;100.00
54882;BME280;40775;51.448;4.742;2023-06-26T05:04:41;101409.09;;;21.87;100.00
54882;BME280;40775;51.448;4.742;2023-06-26T05:07:09;101398.38;;;21.89;100.00
54882;BME280;40775;51.448;4.742;2023-06-26T05:09:36;101406.38;;;21.90;100.00
54882;BME280;40775;51.448;4.742;2023-06-26T05:12:03;101408.94;;;21.98;100.00
54882;BME280;40775;51.448;4.742;2023-06-26T05:14:31;101401.66;;;22.08;100.00
54882;BME280;40775;51.448;4.742;2023-06-26T05:16:57;101414.13;;;22.07;100.00
54882;BME280;40775;51.448;4.742;2023-06-26T05:19:25;101416.56;;;22.21;100.00
54882;BME280;40775;51.448;4.742;2023-06-26T05:21:52;101420.25;;;22.14;100.00
54882;BME280;40775;51.448;4.742;2023-06-26T05:24:20;101423.69;;;22.22;100.00
54882;BME280;40775;51.448;4.742;2023-06-26T05:26:51;101420.16;;;22.20;100.00
54882;BME280;40775;51.448;4.742;2023-06-26T05:29:18;101430.75;;;22.26;100.00
54882;BME280;40775;51.448;4.742;2023-06-26T05:31:45;101440.25;;;22.41;100.00
54882;BME280;40775;51.448;4.742;2023-06-26T05:34:14;101446.53;;;22.38;100.00
54882;BME280;40775;51.448;4.742;2023-06-26T05:36:42;101437.56;;;22.41;100.00
54882;BME280;40775;51.448;4.742;2023-06-26T05:39:12;101440.28;;;22.39;100.00
54882;BME280;40775;51.448;4.742;2023-06-26T05:41:39;101450.09;;;22.39;100.00
54882;BME280;40775;51.448;4.742;2023-06-26T05:44:06;101456.94;;;22.55;100.00
54882;BME280;40775;51.448;4.742;2023-06-26T05:46:33;101473.03;;;23.40;100.00
54882;BME280;40775;51.448;4.742;2023-06-26T05:49:00;101470.16;;;24.22;100.00
54882;BME280;40775;51.448;4.742;2023-06-26T05:51:28;101467.34;;;24.26;100.00
54882;BME280;40775;51.448;4.742;2023-06-26T05:53:56;101466.44;;;24.61;100.00
54882;BME280;40775;51.448;4.742;2023-06-26T05:56:23;101481.16;;;24.47;100.00
54882;BME280;40775;51.448;4.742;2023-06-26T05:58:51;101472.41;;;24.73;100.00
54882;BME280;40775;51.448;4.742;2023-06-26T06:01:19;101483.47;;;24.91;100.00
54882;BME280;40775;51.448;4.742;2023-06-26T06:03:48;101478.78;;;24.69;100.00
54882;BME280;40775;51.448;4.742;2023-06-26T06:06:15;101477.28;;;24.57;100.00
54882;BME280;40775;51.448;4.742;2023-06-26T06:08:42;101476.78;;;25.08;100.00
54882;BME280;40775;51.448;4.742;2023-06-26T06:11:12;101463.59;;;25.57;100.00
54882;BME280;40775;51.448;4.742;2023-06-26T06:13:39;101472.94;;;25.44;100.00
54882;BME280;40775;51.448;4.742;2023-06-26T06:16:06;101471.41;;;25.65;100.00
54882;BME280;40775;51.448;4.742;2023-06-26T06:18:33;101474.47;;;24.94;100.00
54882;BME280;40775;51.448;4.742;2023-06-26T06:21:00;101488.06;;;24.88;100.00
54882;BME280;40775;51.448;4.742;2023-06-26T06:23:27;101496.53;;;24.74;100.00
54882;BME280;40775;51.448;4.742;2023-06-26T06:25:54;101496.53;;;24.74;100.00
54882;BME280;40775;51.448;4.742;2023-06-26T06:28:21;101494.47;;;25.15;100.00
54882;BME280;40775;51.448;4.742;2023-06-26T06:30:48;101496.38;;;25.70;100.00
54882;BME280;40775;51.448;4.742;2023-06-26T06:33:16;101491.47;;;25.83;100.00
54882;BME280;40775;51.448;4.742;2023-06-26T06:35:43;101507.59;;;26.11;100.00
54882;BME280;40775;51.448;4.742;2023-06-26T06:38:10;101516.13;;;25.69;100.00
54882;BME280;40775;51.448;4.742;2023-06-26T06:40:37;101521.88;;;25.27;100.00
54882;BME280;40775;51.448;4.742;2023-06-26T06:43:04;101525.63;;;25.51;100.00
54882;BME280;40775;51.448;4.742;2023-06-26T06:45:31;101538.00;;;25.57;100.00
54882;BME280;40775;51.448;4.742;2023-06-26T06:47:58;101549.25;;;25.40;100.00
54882;BME280;40775;51.448;4.742;2023-06-26T06:50:25;101544.72;;;25.42;100.00
54882;BME280;40775;51.448;4.742;2023-06-26T06:56:59;101540.19;;;25.13;100.00
54882;BME280;40775;51.448;4.742;2023-06-26T06:59:26;101553.28;;;25.25;100.00
54882;BME280;40775;51.448;4.742;2023-06-26T07:01:53;101559.28;;;25.35;100.00
54882;BME280;40775;51.448;4.742;2023-06-26T07:04:20;101546.34;;;25.48;100.00
54882;BME280;40775;51.448;4.742;2023-06-26T07:06:47;101558.28;;;25.97;100.00
54882;BME280;40775;51.448;4.742;2023-06-26T07:09:14;101553.00;;;25.64;100.00
54882;BME280;40775;51.448;4.742;2023-06-26T07:11:41;101561.78;;;25.71;100.00
54882;BME280;40775;51.448;4.742;2023-06-26T07:14:08;101573.97;;;25.23;100.00
54882;BME280;40775;51.448;4.742;2023-06-26T07:16:35;101565.06;;;25.20;100.00
54882;BME280;40775;51.448;4.742;2023-06-26T07:19:02;101566.69;;;25.56;100.00
54882;BME280;40775;51.448;4.742;2023-06-26T07:21:29;101578.81;;;25.40;100.00
54882;BME280;40775;51.448;4.742;2023-06-26T07:23:56;101576.41;;;25.31;100.00
54882;BME280;40775;51.448;4.742;2023-06-26T07:26:23;101572.28;;;25.50;100.00
54882;BME280;40775;51.448;4.742;2023-06-26T07:29:05;101575.03;;;26.06;100.00
54882;BME280;40775;51.448;4.742;2023-06-26T07:31:32;101570.53;;;26.35;100.00
54882;BME280;40775;51.448;4.742;2023-06-26T07:34:00;101582.69;;;26.18;100.00
54882;BME280;40775;51.448;4.742;2023-06-26T07:36:27;101588.63;;;26.30;100.00
54882;BME280;40775;51.448;4.742;2023-06-26T07:38:54;101584.22;;;26.54;100.00
54882;BME280;40775;51.448;4.742;2023-06-26T07:41:21;101585.88;;;26.59;100.00
54882;BME280;40775;51.448;4.742;2023-06-26T07:43:48;101593.41;;;26.20;100.00
54882;BME280;40775;51.448;4.742;2023-06-26T07:46:14;101589.88;;;26.46;100.00
54882;BME280;40775;51.448;4.742;2023-06-26T07:48:41;101595.38;;;26.43;100.00
54882;BME280;40775;51.448;4.742;2023-06-26T07:51:08;101612.41;;;26.15;100.00
54882;BME280;40775;51.448;4.742;2023-06-26T07:53:35;101614.16;;;26.16;100.00
54882;BME280;40775;51.448;4.742;2023-06-26T07:56:02;101606.00;;;25.92;100.00
54882;BME280;40775;51.448;4.742;2023-06-26T07:58:29;101601.38;;;25.95;100.00
54882;BME280;40775;51.448;4.742;2023-06-26T08:00:56;101601.00;;;26.07;100.00
54882;BME280;40775;51.448;4.742;2023-06-26T08:03:23;101611.06;;;26.29;100.00
54882;BME280;40775;51.448;4.742;2023-06-26T08:06:01;101604.06;;;26.51;100.00
54882;BME280;40775;51.448;4.742;2023-06-26T08:08:28;101615.56;;;26.56;100.00
54882;BME280;40775;51.448;4.742;2023-06-26T08:10:56;101621.28;;;26.73;100.00
54882;BME280;40775;51.448;4.742;2023-06-26T08:13:23;101617.47;;;26.79;100.00
54882;BME280;40775;51.448;4.742;2023-06-26T08:15:50;101605.06;;;26.21;98.74
54882;BME280;40775;51.448;4.742;2023-06-26T08:18:18;101605.47;;;26.08;95.61
54882;BME280;40775;51.448;4.742;2023-06-26T08:20:45;101620.81;;;25.77;95.05
54882;BME280;40775;51.448;4.742;2023-06-26T08:23:12;101606.34;;;25.81;98.92
54882;BME280;40775;51.448;4.742;2023-06-26T08:25:39;101611.88;;;26.04;95.47
54882;BME280;40775;51.448;4.742;2023-06-26T08:28:06;101620.63;;;25.83;94.40
54882;BME280;40775;51.448;4.742;2023-06-26T08:30:33;101615.09;;;26.15;97.07
54882;BME280;40775;51.448;4.742;2023-06-26T08:33:00;101615.31;;;26.09;94.29
54882;BME280;40775;51.448;4.742;2023-06-26T08:35:27;101612.03;;;26.54;99.14
54882;BME280;40775;51.448;4.742;2023-06-26T08:37:54;101616.59;;;26.78;100.00
54882;BME280;40775;51.448;4.742;2023-06-26T08:40:21;101624.25;;;26.66;82.30
54882;BME280;40775;51.448;4.742;2023-06-26T08:42:48;101622.56;;;26.88;90.41
54882;BME280;40775;51.448;4.742;2023-06-26T08:45:19;101625.09;;;26.93;97.55
54882;BME280;40775;51.448;4.742;2023-06-26T08:47:48;101621.81;;;27.09;84.33
54882;BME280;40775;51.448;4.742;2023-06-26T08:50:20;101630.47;;;27.19;88.15
54882;BME280;40775;51.448;4.742;2023-06-26T08:53:05;101634.63;;;27.03;81.53
54882;BME280;40775;51.448;4.742;2023-06-26T08:55:36;101639.91;;;27.06;79.38
54882;BME280;40775;51.448;4.742;2023-06-26T08:58:05;101645.19;;;27.09;96.83
54882;BME280;40775;51.448;4.742;2023-06-26T09:00:32;101647.63;;;27.17;73.31
54882;BME280;40775;51.448;4.742;2023-06-26T09:03:00;101635.97;;;27.16;69.13
54882;BME280;40775;51.448;4.742;2023-06-26T09:05:27;101629.78;;;26.88;76.32
54882;BME280;40775;51.448;4.742;2023-06-26T09:07:55;101640.28;;;26.95;98.27
54882;BME280;40775;51.448;4.742;2023-06-26T09:10:25;101637.69;;;27.19;97.42
54882;BME280;40775;51.448;4.742;2023-06-26T09:12:55;101638.69;;;27.16;76.95
54882;BME280;40775;51.448;4.742;2023-06-26T09:15:24;101643.19;;;27.16;74.62
54882;BME280;40775;51.448;4.742;2023-06-26T09:17:56;101656.91;;;27.08;78.66
54882;BME280;40775;51.448;4.742;2023-06-26T09:20:28;101649.81;;;27.05;76.98
54882;BME280;40775;51.448;4.742;2023-06-26T09:22:57;101662.38;;;27.31;94.42
54882;BME280;40775;51.448;4.742;2023-06-26T09:25:24;101666.00;;;27.30;77.08
54882;BME280;40775;51.448;4.742;2023-06-26T09:27:52;101665.88;;;26.82;70.16
54882;BME280;40775;51.448;4.742;2023-06-26T09:30:20;101681.75;;;26.37;71.53
54882;BME280;40775;51.448;4.742;2023-06-26T09:32:47;101681.91;;;26.87;86.73
54882;BME280;40775;51.448;4.742;2023-06-26T09:35:15;101681.09;;;26.85;70.95
54882;BME280;40775;51.448;4.742;2023-06-26T09:37:43;101679.00;;;27.19;78.01
54882;BME280;40775;51.448;4.742;2023-06-26T09:40:10;101682.28;;;27.27;72.79
54882;BME280;40775;51.448;4.742;2023-06-26T09:42:37;101673.66;;;26.65;68.97
54882;BME280;40775;51.448;4.742;2023-06-26T09:45:04;101687.72;;;26.46;71.33
54882;BME280;40775;51.448;4.742;2023-06-26T09:47:33;101678.06;;;26.94;84.54
54882;BME280;40775;51.448;4.742;2023-06-26T09:50:04;101698.31;;;27.32;64.61
54882;BME280;40775;51.448;4.742;2023-06-26T09:52:32;101697.03;;;27.17;82.44
54882;BME280;40775;51.448;4.742;2023-06-26T09:55:09;101705.69;;;27.52;62.08
54882;BME280;40775;51.448;4.742;2023-06-26T09:57:39;101697.22;;;27.62;69.39
54882;BME280;40775;51.448;4.742;2023-06-26T10:00:07;101698.59;;;27.49;81.70
54882;BME280;40775;51.448;4.742;2023-06-26T10:02:36;101700.16;;;27.55;68.33
54882;BME280;40775;51.448;4.742;2023-06-26T10:05:03;101710.78;;;27.59;67.61
54882;BME280;40775;51.448;4.742;2023-06-26T10:07:31;101711.09;;;27.52;76.26
54882;BME280;40775;51.448;4.742;2023-06-26T10:10:01;101708.50;;;27.49;85.51
54882;BME280;40775;51.448;4.742;2023-06-26T10:12:31;101709.50;;;27.46;85.42
54882;BME280;40775;51.448;4.742;2023-06-26T10:14:58;101711.72;;;27.83;75.77
54882;BME280;40775;51.448;4.742;2023-06-26T10:17:34;101707.00;;;27.65;83.56
54882;BME280;40775;51.448;4.742;2023-06-26T10:20:03;101718.44;;;27.73;72.47
54882;BME280;40775;51.448;4.742;2023-06-26T10:22:42;101719.13;;;27.78;75.32
54882;BME280;40775;51.448;4.742;2023-06-26T10:25:10;101716.66;;;27.47;75.29
54882;BME280;40775;51.448;4.742;2023-06-26T10:27:42;101714.28;;;27.63;76.81
54882;BME280;40775;51.448;4.742;2023-06-26T10:30:20;101717.25;;;27.80;85.24
54882;BME280;40775;51.448;4.742;2023-06-26T10:32:50;101718.13;;;27.56;98.72
54882;BME280;40775;51.448;4.742;2023-06-26T10:35:17;101715.00;;;27.91;71.61
54882;BME280;40775;51.448;4.742;2023-06-26T10:37:47;101708.09;;;27.84;72.22
54882;BME280;40775;51.448;4.742;2023-06-26T10:40:43;101711.28;;;27.72;71.41
54882;BME280;40775;51.448;4.742;2023-06-26T10:43:13;101709.97;;;28.06;75.35
54882;BME280;40775;51.448;4.742;2023-06-26T10:45:48;101724.56;;;27.52;73.70
54882;BME280;40775;51.448;4.742;2023-06-26T10:48:22;101725.34;;;27.80;75.33
54882;BME280;40775;51.448;4.742;2023-06-26T10:50:50;101725.22;;;27.83;71.47
54882;BME280;40775;51.448;4.742;2023-06-26T10:56:04;101733.75;;;27.73;71.96
54882;BME280;40775;51.448;4.742;2023-06-26T10:58:42;101732.63;;;27.78;65.68
54882;BME280;40775;51.448;4.742;2023-06-26T11:03:44;101748.56;;;27.59;61.95
54882;BME280;40775;51.448;4.742;2023-06-26T11:06:14;101732.97;;;27.92;62.95
54882;BME280;40775;51.448;4.742;2023-06-26T11:09:06;101733.69;;;27.97;70.97
54882;BME280;40775;51.448;4.742;2023-06-26T11:14:23;101754.47;;;28.19;75.53
54882;BME280;40775;51.448;4.742;2023-06-26T11:16:51;101756.34;;;28.17;69.24
54882;BME280;40775;51.448;4.742;2023-06-26T11:19:19;101756.81;;;28.05;61.87
54882;BME280;40775;51.448;4.742;2023-06-26T11:21:47;101764.97;;;28.28;65.10
54882;BME280;40775;51.448;4.742;2023-06-26T11:24:14;101763.50;;;27.94;66.40
54882;BME280;40775;51.448;4.742;2023-06-26T11:26:44;101769.38;;;27.56;63.53
54882;BME280;40775;51.448;4.742;2023-06-26T11:29:12;101778.50;;;27.78;65.17
54882;BME280;40775;51.448;4.742;2023-06-26T11:31:41;101771.88;;;27.35;69.88
54882;BME280;40775;51.448;4.742;2023-06-26T11:34:13;101773.75;;;27.33;66.73
54882;BME280;40775;51.448;4.742;2023-06-26T11:36:42;101782.47;;;27.68;67.44
54882;BME280;40775;51.448;4.742;2023-06-26T11:39:12;101789.03;;;27.59;61.77
54882;BME280;40775;51.448;4.742;2023-06-26T11:41:40;101789.59;;;27.94;61.89
54882;BME280;40775;51.448;4.742;2023-06-26T11:44:09;101794.09;;;27.70;61.89
54882;BME280;40775;51.448;4.742;2023-06-26T11:46:37;101787.34;;;27.30;61.82
54882;BME280;40775;51.448;4.742;2023-06-26T11:49:08;101774.81;;;27.29;64.29
54882;BME280;40775;51.448;4.742;2023-06-26T11:51:36;101796.47;;;27.53;72.05
54882;BME280;40775;51.448;4.742;2023-06-26T11:54:04;101799.03;;;27.82;71.13
54882;BME280;40775;51.448;4.742;2023-06-26T11:56:31;101804.28;;;27.60;100.00
54882;BME280;40775;51.448;4.742;2023-06-26T11:59:07;101801.53;;;28.37;69.14
54882;BME280;40775;51.448;4.742;2023-06-26T12:01:44;101799.06;;;28.30;89.53
54882;BME280;40775;51.448;4.742;2023-06-26T12:04:16;101799.25;;;28.26;72.66
54882;BME280;40775;51.448;4.742;2023-06-26T12:06:48;101800.81;;;28.55;63.26
54882;BME280;40775;51.448;4.742;2023-06-26T12:09:18;101805.66;;;28.69;59.17
54882;BME280;40775;51.448;4.742;2023-06-26T12:11:48;101804.53;;;28.29;71.79
54882;BME280;40775;51.448;4.742;2023-06-26T12:14:20;101810.88;;;28.28;58.59
54882;BME280;40775;51.448;4.742;2023-06-26T12:16:48;101816.75;;;27.64;61.11
54882;BME280;40775;51.448;4.742;2023-06-26T12:19:16;101810.47;;;27.89;66.27
54882;BME280;40775;51.448;4.742;2023-06-26T12:21:47;101821.97;;;28.19;63.67
54882;BME280;40775;51.448;4.742;2023-06-26T12:24:17;101809.69;;;28.10;56.42
54882;BME280;40775;51.448;4.742;2023-06-26T12:26:55;101810.69;;;28.08;69.38
54882;BME280;40775;51.448;4.742;2023-06-26T12:29:35;101809.81;;;28.32;55.46
54882;BME280;40775;51.448;4.742;2023-06-26T12:32:02;101810.09;;;28.48;57.03
54882;BME280;40775;51.448;4.742;2023-06-26T12:34:34;101818.50;;;28.40;59.49
54882;BME280;40775;51.448;4.742;2023-06-26T12:37:05;101811.81;;;28.27;61.09
54882;BME280;40775;51.448;4.742;2023-06-26T12:39:53;101827.84;;;28.55;59.75
54882;BME280;40775;51.448;4.742;2023-06-26T12:42:27;101825.53;;;28.44;57.96
54882;BME280;40775;51.448;4.742;2023-06-26T12:44:54;101815.66;;;28.43;55.91
54882;BME280;40775;51.448;4.742;2023-06-26T12:47:28;101817.69;;;28.13;71.50
54882;BME280;40775;51.448;4.742;2023-06-26T12:49:57;101817.50;;;27.94;82.24
54882;BME280;40775;51.448;4.742;2023-06-26T12:52:24;101816.66;;;28.64;65.17
54882;BME280;40775;51.448;4.742;2023-06-26T12:54:54;101810.31;;;28.65;60.87
54882;BME280;40775;51.448;4.742;2023-06-26T12:57:23;101807.41;;;28.70;62.13
54882;BME280;40775;51.448;4.742;2023-06-26T12:59:50;101813.50;;;28.53;68.38
54882;BME280;40775;51.448;4.742;2023-06-26T13:02:17;101810.94;;;28.50;65.51